Milton, KS (67106)

7:43 AM CST on November 18, 2017 (GMT -0600)
WSU Field Station | | Change Station
Active Advisory: Wind Advisory Active Notice: Public Information Statement

Elev 1332 ft 37.53 °N, 97.67 °W | Updated 3 minutes ago

Rain
Rain
45.7 °F
Feels Like 40 °F
N
12.0
Wind Variable Wind from ENE
Gusts 14.0 mph

Today
High -- | Low -- °F
--% Chance of Precip.
Yesterday
High -- | Low -- °F
Precip. -- in
Pressure 29.80 in
Visibility 10.0 miles
Clouds Overcast 1800 ft
Windchill 40 °F
Dew Point 42 °F
Humidity 86%
Rainfall 0.00 in
Snow Depth Not available.
7:14 AM 5:18 PM
New Moon, 0% visible
METAR KICT 181253Z 34025G36KT 10SM OVC018 08/05 A2981 RMK AO2 PK WND 34036/1246 PRESRR SLP090 T00830050
Pressure 29.80 in
Visibility 10.0 miles
Clouds Overcast 1800 ft
Windchill 40 °F
Dew Point 42 °F
Humidity 86%
Rainfall 0.00 in
Snow Depth Not available.
7:14 AM 5:18 PM
New Moon, 0% visible
METAR KICT 181253Z 34025G36KT 10SM OVC018 08/05 A2981 RMK AO2 PK WND 34036/1246 PRESRR SLP090 T00830050

Get Your Daily Forecast Email!

Thanks for signing up!

Be on the lookout for a verification email in your inbox.

You'll start receiving severe weather alerts in your inbox..

×

10-Day Weather Forecast

Almanac

Astronomy

Nov. 18, 2017 Rise Set
Actual Time
Civil Twilight
Nautical Twilight
Astronomical Twilight
Moon
Length of Visible Light
Length of Day
Tomorrow will be .
, % of the Moon is Illuminated

Today's Extremes

State Highs State Lows

Community

WunderPhotos

Category 6

Welcome to Category 6. This is the collective home for Weather Underground's featured writeups by Dr. Jeff Masters (right), Bob Henson (left), Chris Burt, and other regular contributors.

Nearby

Air Quality

  Air Quality AQ Index Pollutant
Not available.

Snow Depth

Station Depth Elevation

Earthquake Activity

City Distance Mag. Time & Date
Minimum magnitude displayed is 2.5.

Coastal Water Temperatures

Place Temperature

Stations

Nearby Weather Stations

Station Location Temp. Windchill Dew Point Humidity Wind Precip. Elev Updated Type
                   

Watches & Warnings

Wind Advisory
Issued: 3:43 AM CST Nov. 18, 2017 – National Weather Service

... Wind Advisory remains in effect until 4 PM CST this
afternoon...

* winds... northwest around 30 mph with gusts near 40 mph.

* Timing... the strongest winds will be this morning, with winds
diminishing this afternoon.

* Impacts... include strong and sudden wind gusts and potential for
hazardous travel for high profile vehicles due to cross winds on
east-west oriented roads and highways.

Precautionary/preparedness actions...

A Wind Advisory means that sustained winds of at least 30 mph
and/or wind gusts over 45 mph are expected. Winds this strong
can make driving difficult, especially for high profile vehicles.
Use extra caution.